F/V Moorea — FMIT — position and weather

sailwx.info

Track history (hours):
 
Tides and Currents Weather Stations Pressure Air Temp Water Temp Dewpoint Dewpoint Depression Visibility Wind Speed Wind Dir Waves Ship Positions

F/V Moorea

Last reported at 2016-Jun-25 12:10 UTC. Time now 2016-Jun-26 11:58 UTC.
Position N 47°18' W 002°31'.

Length 18 m.

Type: Fishing. MMSI: 228239900.

Date/timePositionNaut miles runAvg speedWind from/ knotsBaromVisibWave heightAir tempDewpointWater temp
2016-Jun-25 12:10N 47°18' W 002°31'0 0.0
2016-Jun-25 04:32N 47°18' W 002°31'0 0.0
2016-Jun-25 03:33N 47°18' W 002°31'0 0.0
2016-Jun-24 23:32N 47°18' W 002°31'0 0.0
2016-Jun-24 22:33N 47°18' W 002°31'0 0.0
2016-Jun-24 21:33N 47°18' W 002°31'0 0.0
2016-Jun-24 20:32N 47°18' W 002°31'0 0.0
2016-Jun-24 19:32N 47°18' W 002°31'0 0.0
2016-Jun-24 18:32N 47°18' W 002°31'0 0.0
2016-Jun-24 17:32N 47°18' W 002°31'5 4.9
2016-Jun-24 16:33N 47°15' W 002°36'10 9.8
2016-Jun-24 15:32N 47°06' W 002°44'36 5.9
2016-Jun-24 09:23N 46°34' W 003°08'2 1.8
2016-Jun-24 08:32N 46°34' W 003°10'1 1.2
2016-Jun-24 07:33N 46°34' W 003°09'3 0.9
2016-Jun-24 04:22N 46°37' W 003°11'1 1.3
2016-Jun-24 03:24N 46°36' W 003°12'4 3.5
2016-Jun-24 02:24N 46°33' W 003°11'3 3.0
2016-Jun-24 01:31N 46°30' W 003°09'1 0.9
2016-Jun-24 00:33N 46°30' W 003°11'2 0.9
2016-Jun-23 22:32N 46°28' W 003°10'4 3.7
2016-Jun-23 21:30N 46°32' W 003°11'6 0.7
2016-Jun-23 13:33N 46°38' W 003°12'1 0.1
2016-Jun-23 04:04N 46°38' W 003°11'2 2.6
2016-Jun-23 03:15N 46°40' W 003°10'2 0.9
2016-Jun-23 01:13N 46°41' W 003°13'2 2.9
2016-Jun-23 00:33N 46°43' W 003°12'13 6.6
2016-Jun-22 22:33N 46°53' W 003°00'9 9.2
2016-Jun-22 21:33N 47°01' W 002°52'10 9.7
2016-Jun-22 20:33N 47°09' W 002°44'10 9.6
2016-Jun-22 19:33N 47°17' W 002°36'4 3.8
2016-Jun-22 18:32N 47°18' W 002°31'4 4.5
2016-Jun-22 17:33N 47°16' W 002°36'9 9.2
2016-Jun-22 16:32N 47°07' W 002°43'35 6.9
2016-Jun-22 11:31N 46°39' W 003°11'2 0.5
2016-Jun-22 06:11N 46°37' W 003°09'5 3.0
2016-Jun-22 04:32N 46°42' W 003°08'7 3.0
2016-Jun-22 02:06N 46°35' W 003°09'29 1.3
2016-Jun-21 04:33N 46°60' W 002°49'9 9.3
2016-Jun-21 03:33N 47°08' W 002°43'9 9.0
2016-Jun-21 02:34N 47°16' W 002°37'5 4.4
2016-Jun-21 01:31N 47°18' W 002°31'0 0.4
2016-Jun-21 00:33N 47°18' W 002°31'9 8.7
2016-Jun-20 23:33N 47°12' W 002°40'10 9.5
2016-Jun-20 22:33N 47°04' W 002°47'9 9.0
2016-Jun-20 21:32N 46°56' W 002°54'18 1.6
2016-Jun-20 10:27N 46°41' W 003°09'2 2.5
2016-Jun-20 09:33N 46°40' W 003°07'2 2.0
2016-Jun-20 08:33N 46°38' W 003°07'4 3.5
2016-Jun-20 07:33N 46°41' W 003°10'2 1.7
2016-Jun-20 06:32N 46°40' W 003°08'1 0.2
2016-Jun-20 00:33N 46°42' W 003°08'4 2.9
2016-Jun-19 23:06N 46°37' W 003°07'2 3.7
2016-Jun-19 22:30N 46°40' W 003°08'6 0.4
2016-Jun-19 07:32N 46°37' W 003°00'11 9.8
2016-Jun-19 06:26N 46°47' W 002°54'9 9.7
2016-Jun-19 05:33N 46°55' W 002°49'10 9.9
2016-Jun-19 04:33N 47°04' W 002°44'10 9.8
2016-Jun-19 03:33N 47°13' W 002°38'7 7.0
2016-Jun-19 02:33N 47°18' W 002°31'0 0.1
2016-Jun-19 01:33N 47°18' W 002°31'0 0.0
2016-Jun-19 00:33N 47°18' W 002°31'0 0.0
2016-Jun-18 23:33N 47°18' W 002°31'4 4.3
2016-Jun-18 22:33N 47°16' W 002°36'7 7.0
2016-Jun-18 21:33N 47°10' W 002°42'7 6.7
2016-Jun-18 20:33N 47°04' W 002°48'6 0.4
2016-Jun-18 04:30N 46°60' W 002°54'9 9.7
2016-Jun-18 03:33N 47°07' W 002°45'10 9.9
2016-Jun-18 02:33N 47°15' W 002°37'5 5.0
2016-Jun-18 01:33N 47°18' W 002°31'5 5.1
2016-Jun-18 00:33N 47°15' W 002°37'9 9.2
2016-Jun-17 23:33N 47°08' W 002°46'15 0.7
2016-Jun-17 01:33N 46°56' W 002°59'9 9.1
2016-Jun-17 00:33N 47°03' W 002°51'9 9.1
2016-Jun-16 23:33N 47°10' W 002°43'9 8.7
2016-Jun-16 22:33N 47°17' W 002°35'3 0.6
2016-Jun-16 17:32N 47°18' W 002°31'2 2.5
2016-Jun-16 16:33N 47°18' W 002°34'9 9.1
2016-Jun-16 15:33N 47°10' W 002°41'  
Track history (hours):
 
Tides and Currents Weather Stations Pressure Air Temp Water Temp Dewpoint Dewpoint Depression Visibility Wind Speed Wind Dir Waves Ship Positions

F/V Moorea

Last reported at 2016-Jun-25 12:10 UTC. Time now 2016-Jun-26 11:58 UTC.
Position N 47°18' W 002°31'.

Length 18 m.

Type: Fishing. MMSI: 228239900.

Date/timePositionNaut miles runAvg speedWind from/ knotsBaromVisibWave heightAir tempDewpointWater temp
2016-Jun-25 12:10N 47°18' W 002°31'0 0.0
2016-Jun-25 04:32N 47°18' W 002°31'0 0.0
2016-Jun-25 03:33N 47°18' W 002°31'0 0.0
2016-Jun-24 23:32N 47°18' W 002°31'0 0.0
2016-Jun-24 22:33N 47°18' W 002°31'0 0.0
2016-Jun-24 21:33N 47°18' W 002°31'0 0.0
2016-Jun-24 20:32N 47°18' W 002°31'0 0.0
2016-Jun-24 19:32N 47°18' W 002°31'0 0.0
2016-Jun-24 18:32N 47°18' W 002°31'0 0.0
2016-Jun-24 17:32N 47°18' W 002°31'5 4.9
2016-Jun-24 16:33N 47°15' W 002°36'10 9.8
2016-Jun-24 15:32N 47°06' W 002°44'36 5.9
2016-Jun-24 09:23N 46°34' W 003°08'2 1.8
2016-Jun-24 08:32N 46°34' W 003°10'1 1.2
2016-Jun-24 07:33N 46°34' W 003°09'3 0.9
2016-Jun-24 04:22N 46°37' W 003°11'1 1.3
2016-Jun-24 03:24N 46°36' W 003°12'4 3.5
2016-Jun-24 02:24N 46°33' W 003°11'3 3.0
2016-Jun-24 01:31N 46°30' W 003°09'1 0.9
2016-Jun-24 00:33N 46°30' W 003°11'2 0.9
2016-Jun-23 22:32N 46°28' W 003°10'4 3.7
2016-Jun-23 21:30N 46°32' W 003°11'6 0.7
2016-Jun-23 13:33N 46°38' W 003°12'1 0.1
2016-Jun-23 04:04N 46°38' W 003°11'2 2.6
2016-Jun-23 03:15N 46°40' W 003°10'2 0.9
2016-Jun-23 01:13N 46°41' W 003°13'2 2.9
2016-Jun-23 00:33N 46°43' W 003°12'13 6.6
2016-Jun-22 22:33N 46°53' W 003°00'9 9.2
2016-Jun-22 21:33N 47°01' W 002°52'10 9.7
2016-Jun-22 20:33N 47°09' W 002°44'10 9.6
2016-Jun-22 19:33N 47°17' W 002°36'4 3.8
2016-Jun-22 18:32N 47°18' W 002°31'4 4.5
2016-Jun-22 17:33N 47°16' W 002°36'9 9.2
2016-Jun-22 16:32N 47°07' W 002°43'35 6.9
2016-Jun-22 11:31N 46°39' W 003°11'2 0.5
2016-Jun-22 06:11N 46°37' W 003°09'5 3.0
2016-Jun-22 04:32N 46°42' W 003°08'7 3.0
2016-Jun-22 02:06N 46°35' W 003°09'29 1.3
2016-Jun-21 04:33N 46°60' W 002°49'9 9.3
2016-Jun-21 03:33N 47°08' W 002°43'9 9.0
2016-Jun-21 02:34N 47°16' W 002°37'5 4.4
2016-Jun-21 01:31N 47°18' W 002°31'0 0.4
2016-Jun-21 00:33N 47°18' W 002°31'9 8.7
2016-Jun-20 23:33N 47°12' W 002°40'10 9.5
2016-Jun-20 22:33N 47°04' W 002°47'9 9.0
2016-Jun-20 21:32N 46°56' W 002°54'18 1.6
2016-Jun-20 10:27N 46°41' W 003°09'2 2.5
2016-Jun-20 09:33N 46°40' W 003°07'2 2.0
2016-Jun-20 08:33N 46°38' W 003°07'4 3.5
2016-Jun-20 07:33N 46°41' W 003°10'2 1.7
2016-Jun-20 06:32N 46°40' W 003°08'1 0.2
2016-Jun-20 00:33N 46°42' W 003°08'4 2.9
2016-Jun-19 23:06N 46°37' W 003°07'2 3.7
2016-Jun-19 22:30N 46°40' W 003°08'6 0.4
2016-Jun-19 07:32N 46°37' W 003°00'11 9.8
2016-Jun-19 06:26N 46°47' W 002°54'9 9.7
2016-Jun-19 05:33N 46°55' W 002°49'10 9.9
2016-Jun-19 04:33N 47°04' W 002°44'10 9.8
2016-Jun-19 03:33N 47°13' W 002°38'7 7.0
2016-Jun-19 02:33N 47°18' W 002°31'0 0.1
2016-Jun-19 01:33N 47°18' W 002°31'0 0.0
2016-Jun-19 00:33N 47°18' W 002°31'0 0.0
2016-Jun-18 23:33N 47°18' W 002°31'4 4.3
2016-Jun-18 22:33N 47°16' W 002°36'7 7.0
2016-Jun-18 21:33N 47°10' W 002°42'7 6.7
2016-Jun-18 20:33N 47°04' W 002°48'6 0.4
2016-Jun-18 04:30N 46°60' W 002°54'9 9.7
2016-Jun-18 03:33N 47°07' W 002°45'10 9.9
2016-Jun-18 02:33N 47°15' W 002°37'5 5.0
2016-Jun-18 01:33N 47°18' W 002°31'5 5.1
2016-Jun-18 00:33N 47°15' W 002°37'9 9.2
2016-Jun-17 23:33N 47°08' W 002°46'15 0.7
2016-Jun-17 01:33N 46°56' W 002°59'9 9.1
2016-Jun-17 00:33N 47°03' W 002°51'9 9.1
2016-Jun-16 23:33N 47°10' W 002°43'9 8.7
2016-Jun-16 22:33N 47°17' W 002°35'3 0.6
2016-Jun-16 17:32N 47°18' W 002°31'2 2.5
2016-Jun-16 16:33N 47°18' W 002°34'9 9.1
2016-Jun-16 15:33N 47°10' W 002°41'  

Dump ship's entire track history